Time;durP1;ratioP1;P1;durP2;ratioP2;P2;SDS_P1;SDS_P2;PMS_P1;PMS_P2;Temp;Humidity;BMP_temperature;BMP_pressure;BME280_temperature;BME280_humidity;BME280_pressure;Samples;Min_cycle;Max_cycle;Signal;HPM_P1;HPM_P2
2022/04/03 00:01:03;;;;;;;16.30;9.87;;;0.20;99.90;;;0.63;75.88;97679.84;5046017;28;20059;-39
2022/04/03 00:03:31;;;;;;;15.50;9.97;;;0.10;99.90;;;0.71;75.44;97680.19;5047190;28;20063;-39
2022/04/03 00:05:59;;;;;;;14.73;9.33;;;0.30;99.90;;;0.80;76.03;97676.13;5045845;28;20049;-39
2022/04/03 00:08:28;;;;;;;20.13;10.17;;;0.40;99.90;;;0.84;75.25;97678.44;5046498;28;20075;-39
2022/04/03 00:10:56;;;;;;;23.10;10.97;;;0.40;99.90;;;0.86;75.36;97680.97;5044539;28;20052;-39
2022/04/03 00:13:24;;;;;;;18.60;11.23;;;0.40;99.90;;;0.85;74.71;97682.72;5050526;28;20040;-39
2022/04/03 00:15:51;;;;;;;20.40;11.03;;;0.40;99.90;;;0.84;74.87;97672.38;5053302;28;20040;-39
2022/04/03 00:18:19;;;;;;;17.97;10.90;;;0.40;99.90;;;0.73;75.75;97683.53;5052573;28;20683;-39
2022/04/03 00:20:49;;;;;;;19.43;11.30;;;0.30;99.90;;;0.68;75.17;97672.50;5052783;28;20063;-39
2022/04/03 00:23:17;;;;;;;23.40;12.97;;;0.30;99.90;;;0.75;75.75;97676.41;5053053;28;20242;-39
2022/04/03 00:25:45;;;;;;;23.00;11.77;;;0.30;99.90;;;0.73;75.25;97684.38;5052811;28;20045;-39
2022/04/03 00:28:13;;;;;;;21.30;12.10;;;0.20;99.90;;;0.61;75.03;97677.31;5052389;28;20044;-39
2022/04/03 00:30:42;;;;;;;18.87;12.17;;;0.10;99.90;;;0.64;75.13;97684.13;5052082;28;20216;-39
2022/04/03 00:33:12;;;;;;;22.73;12.90;;;0.10;99.90;;;0.62;75.69;97684.25;5053078;28;20055;-39
2022/04/03 00:35:40;;;;;;;25.90;12.33;;;0.20;99.90;;;0.59;75.32;97687.88;5053561;28;20053;-39
2022/04/03 00:38:08;;;;;;;19.80;11.67;;;0.10;99.90;;;0.63;75.37;97682.47;5051619;28;20052;-39
2022/04/03 00:40:37;;;;;;;19.77;12.80;;;0.10;99.90;;;0.59;75.81;97687.03;5052298;28;20082;-39
2022/04/03 00:43:05;;;;;;;19.47;11.07;;;0.10;99.90;;;0.52;76.01;97686.56;5050953;28;20053;-39
2022/04/03 00:45:33;;;;;;;18.07;11.23;;;0.10;99.90;;;0.54;75.29;97687.34;5053321;28;20049;-39
2022/04/03 00:48:01;;;;;;;20.60;12.93;;;0.10;99.90;;;0.56;75.97;97689.84;5052305;28;20049;-39
2022/04/03 00:50:29;;;;;;;18.87;11.37;;;0.10;99.90;;;0.47;75.32;97683.44;5052839;28;20307;-39
2022/04/03 00:52:57;;;;;;;23.63;14.07;;;0.10;99.90;;;0.54;75.75;97691.72;5051168;28;20063;-39
2022/04/03 00:55:25;;;;;;;17.57;11.47;;;0.10;99.90;;;0.49;76.04;97688.59;5052505;28;20061;-39
2022/04/03 00:57:53;;;;;;;19.67;11.47;;;0.10;99.90;;;0.56;75.12;97692.47;5050628;28;20048;-38
2022/04/03 01:00:22;;;;;;;23.90;13.20;;;0.10;99.90;;;0.62;76.15;97686.88;5050427;28;20055;-38
2022/04/03 01:02:50;;;;;;;18.23;10.77;;;0.20;99.90;;;0.69;75.71;97695.16;5052464;28;20422;-38
2022/04/03 01:05:18;;;;;;;17.57;12.30;;;0.30;99.90;;;0.68;75.91;97693.47;5051898;28;20063;-38
2022/04/03 01:07:46;;;;;;;17.57;11.03;;;0.30;99.90;;;0.64;75.18;97689.34;5052542;28;20060;-39
2022/04/03 01:10:14;;;;;;;17.90;10.67;;;0.20;99.90;;;0.60;75.34;97693.94;5052646;28;20053;-39
2022/04/03 01:12:45;;;;;;;19.10;11.80;;;0.20;99.90;;;0.59;75.22;97694.91;5051910;28;20241;-39
2022/04/03 01:15:19;;;;;;;18.37;11.30;;;0.10;99.90;;;0.58;75.89;97694.06;5050580;28;20045;-39
2022/04/03 01:17:47;;;;;;;18.17;12.20;;;0.20;99.90;;;0.65;75.58;97691.06;5052766;28;20055;-39
2022/04/03 01:20:15;;;;;;;19.47;11.60;;;0.20;99.90;;;0.71;75.52;97695.91;5051992;28;20048;-38
2022/04/03 01:22:43;;;;;;;18.23;10.27;;;0.30;99.90;;;0.71;75.14;97691.50;5051091;28;20358;-39
2022/04/03 01:25:11;;;;;;;19.37;11.47;;;0.30;99.90;;;0.74;74.94;97695.72;5047855;28;20048;-39
2022/04/03 01:27:39;;;;;;;17.47;11.43;;;0.40;99.90;;;0.71;75.24;97693.28;5049470;28;20033;-39
2022/04/03 01:30:10;;;;;;;16.27;10.23;;;0.30;99.90;;;0.69;75.47;97696.00;5049392;28;20048;-39
2022/04/03 01:32:39;;;;;;;16.07;10.53;;;0.30;99.90;;;0.73;75.15;97697.47;5049563;28;20754;-38
2022/04/03 01:35:08;;;;;;;17.33;10.60;;;0.30;99.90;;;0.74;74.79;97700.97;5046348;28;20052;-38
2022/04/03 01:37:36;;;;;;;18.27;10.50;;;0.30;99.90;;;0.78;75.13;97702.44;5049392;28;20061;-39
2022/04/03 01:40:05;;;;;;;16.60;10.40;;;0.40;99.90;;;0.78;75.22;97705.06;5049322;28;20362;-38
2022/04/03 01:42:33;;;;;;;18.00;10.63;;;0.40;99.90;;;0.62;75.10;97699.97;5048755;28;20071;-38
2022/04/03 01:45:01;;;;;;;15.77;10.50;;;0.20;99.90;;;0.66;75.23;97705.81;5048675;28;20044;-38
2022/04/03 01:47:30;;;;;;;16.83;10.00;;;0.30;99.90;;;0.59;75.16;97702.75;5049609;28;20048;-39
2022/04/03 01:49:58;;;;;;;18.37;9.97;;;0.20;99.90;;;0.63;75.02;97709.50;5049168;28;20044;-39
2022/04/03 01:52:26;;;;;;;16.33;11.07;;;0.20;99.90;;;0.71;75.24;97706.38;5049385;28;20065;-39
2022/04/03 01:54:54;;;;;;;20.40;9.97;;;0.30;99.90;;;0.64;75.46;97703.31;5049116;28;20055;-39
2022/04/03 01:57:21;;;;;;;18.13;10.70;;;0.20;99.90;;;0.67;75.35;97708.34;5049028;28;20063;-39
2022/04/03 01:59:49;;;;;;;15.50;9.87;;;0.30;99.90;;;0.64;75.80;97699.84;5048069;28;20047;-39
2022/04/03 02:02:17;;;;;;;14.97;9.57;;;0.30;99.90;;;0.66;74.82;97698.81;5048602;28;20346;-39
2022/04/03 02:04:46;;;;;;;16.57;10.63;;;0.30;99.90;;;0.66;75.29;97704.06;5048258;28;20381;-39
2022/04/03 02:07:13;;;;;;;19.63;10.43;;;0.30;99.90;;;0.68;75.30;97699.56;5047859;28;20540;-39
2022/04/03 02:09:42;;;;;;;16.87;10.07;;;0.30;99.90;;;0.69;74.97;97696.00;5046935;28;20052;-39
2022/04/03 02:12:10;;;;;;;16.47;9.87;;;0.30;99.90;;;0.72;75.45;97703.66;5046679;28;20053;-39
2022/04/03 02:14:38;;;;;;;15.70;9.53;;;0.30;99.90;;;0.72;75.04;97708.91;5047884;28;20091;-39
2022/04/03 02:17:07;;;;;;;18.70;10.80;;;0.30;99.90;;;0.67;75.10;97704.91;5048183;28;20052;-39
2022/04/03 02:19:34;;;;;;;15.67;9.33;;;0.20;99.90;;;0.56;75.00;97710.81;5048025;28;20052;-39
2022/04/03 02:22:03;;;;;;;15.60;9.90;;;0.10;99.90;;;0.59;74.83;97703.59;5047750;28;20057;-39
2022/04/03 02:24:31;;;;;;;14.30;9.70;;;0.20;99.90;;;0.58;74.91;97707.19;5047376;28;20060;-39
2022/04/03 02:26:59;;;;;;;17.20;11.20;;;0.10;99.90;;;0.64;75.49;97705.94;5047250;28;20059;-39
2022/04/03 02:29:27;;;;;;;17.27;10.30;;;0.20;99.90;;;0.72;75.00;97706.28;5047549;28;20059;-38
2022/04/03 02:31:55;;;;;;;15.83;9.33;;;0.30;99.90;;;0.70;74.86;97707.31;5048258;28;20052;-38
2022/04/03 02:34:22;;;;;;;14.57;10.30;;;0.30;99.90;;;0.72;74.88;97708.06;5047813;28;20558;-39
2022/04/03 02:36:50;;;;;;;16.97;9.50;;;0.30;99.90;;;0.73;75.01;97707.94;5048603;28;20064;-39
2022/04/03 02:39:19;;;;;;;14.53;9.73;;;0.30;99.90;;;0.65;74.49;97709.41;5047702;28;20059;-39
2022/04/03 02:41:47;;;;;;;15.70;9.00;;;0.20;99.90;;;0.68;74.85;97712.66;5047341;28;20618;-39
2022/04/03 02:44:16;;;;;;;18.43;9.93;;;0.30;99.90;;;0.74;75.32;97714.06;5046161;28;20060;-39
2022/04/03 02:46:43;;;;;;;15.27;9.97;;;0.30;99.90;;;0.71;74.66;97717.69;5048102;28;20680;-39
2022/04/03 02:49:11;;;;;;;17.37;10.27;;;0.30;99.90;;;0.72;74.24;97715.94;5048258;28;20044;-39
2022/04/03 02:51:39;;;;;;;15.87;9.80;;;0.30;99.90;;;0.72;74.49;97721.19;5048040;28;20055;-39
2022/04/03 02:54:07;;;;;;;15.90;9.27;;;0.20;99.90;;;0.68;74.47;97717.03;5048242;28;20259;-39
2022/04/03 02:56:35;;;;;;;13.30;8.87;;;0.20;99.90;;;0.75;74.94;97716.56;5045108;28;20044;-39
2022/04/03 02:59:03;;;;;;;16.10;10.03;;;0.40;99.90;;;0.74;74.69;97719.31;5047072;28;20047;-39
2022/04/03 03:01:31;;;;;;;14.60;9.77;;;0.30;99.90;;;0.74;74.96;97722.75;5046839;28;20053;-39
2022/04/03 03:03:59;;;;;;;17.20;9.60;;;0.40;99.90;;;0.80;74.73;97716.28;5046247;28;20055;-39
2022/04/03 03:06:27;;;;;;;15.00;9.53;;;0.40;99.90;;;0.85;75.15;97715.97;5047639;28;20044;-39
2022/04/03 03:08:55;;;;;;;16.83;9.47;;;0.50;99.90;;;0.87;74.19;97714.09;5046259;28;20259;-39
2022/04/03 03:11:23;;;;;;;13.40;9.23;;;0.50;99.90;;;0.90;74.60;97717.38;5045747;28;20067;-39
2022/04/03 03:13:51;;;;;;;17.30;8.87;;;0.50;99.90;;;0.89;74.49;97725.31;5046928;28;20056;-39
2022/04/03 03:16:18;;;;;;;15.60;9.90;;;0.50;99.90;;;0.90;74.85;97716.53;5047051;28;20117;-39
2022/04/03 03:18:46;;;;;;;15.37;9.07;;;0.50;99.90;;;0.92;74.68;97710.25;5046439;28;20059;-39
2022/04/03 03:21:15;;;;;;;14.37;9.80;;;0.50;99.90;;;0.95;74.05;97717.91;5046563;28;20048;-39
2022/04/03 03:23:43;;;;;;;14.33;9.43;;;0.60;99.90;;;1.01;74.40;97713.19;5046249;28;20052;-39
2022/04/03 03:26:11;;;;;;;14.97;9.00;;;0.60;99.90;;;1.04;74.74;97718.25;5047978;28;20056;-39
2022/04/03 03:28:39;;;;;;;21.03;10.57;;;0.60;99.90;;;1.04;74.64;97721.69;5047036;28;20052;-39
2022/04/03 03:31:08;;;;;;;16.93;10.60;;;0.70;99.90;;;1.04;74.20;97724.31;5045750;28;20068;-38
2022/04/03 03:33:36;;;;;;;17.63;10.33;;;0.60;99.90;;;1.03;73.81;97719.19;5046228;28;20051;-39
2022/04/03 03:36:05;;;;;;;15.00;9.17;;;0.60;99.90;;;1.05;74.72;97728.66;5045867;28;20611;-39
2022/04/03 03:38:33;;;;;;;20.33;11.03;;;0.60;99.90;;;1.01;74.21;97729.78;5047065;28;20053;-39
2022/04/03 03:41:01;;;;;;;17.70;10.57;;;0.50;99.90;;;1.03;74.04;97729.66;5046506;28;20044;-39
2022/04/03 03:43:29;;;;;;;16.27;9.37;;;0.60;99.90;;;1.02;73.94;97728.84;5047199;28;20055;-44
2022/04/03 03:45:57;;;;;;;16.97;9.90;;;0.60;99.90;;;1.01;73.98;97728.94;5046079;28;20053;-39
2022/04/03 03:48:25;;;;;;;15.13;9.77;;;0.60;99.90;;;0.98;74.22;97735.22;5045784;28;20344;-39
2022/04/03 03:50:53;;;;;;;15.37;11.33;;;0.50;99.90;;;1.03;74.17;97729.66;5045431;28;20051;-39
2022/04/03 03:53:22;;;;;;;17.37;9.60;;;0.60;99.90;;;1.04;74.52;97726.94;5045991;28;20053;-39
2022/04/03 03:55:49;;;;;;;15.43;10.33;;;0.60;99.90;;;1.01;74.69;97735.03;5046367;28;20355;-39
2022/04/03 03:58:17;;;;;;;14.50;9.50;;;0.60;99.90;;;1.00;73.80;97735.13;5045464;28;20055;-39
2022/04/03 04:00:46;;;;;;;19.03;9.87;;;0.50;99.90;;;1.02;74.33;97739.31;5044923;28;20041;-39
2022/04/03 04:03:14;;;;;;;15.40;9.43;;;0.60;99.90;;;1.05;74.12;97744.38;5046225;28;20059;-39
2022/04/03 04:05:42;;;;;;;15.67;9.90;;;0.60;99.90;;;1.02;73.61;97741.09;5046536;28;20048;-39
2022/04/03 04:08:10;;;;;;;17.53;9.67;;;0.60;99.90;;;1.00;74.22;97746.44;5045456;28;20055;-39
2022/04/03 04:10:38;;;;;;;14.67;9.37;;;0.50;99.90;;;1.01;74.25;97749.91;5045532;28;20045;-39
2022/04/03 04:13:07;;;;;;;15.67;9.57;;;0.60;99.90;;;1.02;74.19;97747.19;5046106;28;20076;-39
2022/04/03 04:15:34;;;;;;;15.27;9.87;;;0.60;99.90;;;1.04;74.40;97747.94;5045960;28;20049;-39
2022/04/03 04:18:02;;;;;;;16.27;10.50;;;0.60;99.90;;;1.03;73.71;97750.63;5047417;28;20053;-39
2022/04/03 04:20:30;;;;;;;16.93;9.73;;;0.60;99.90;;;0.94;73.41;97755.53;5045593;28;20052;-39
2022/04/03 04:22:59;;;;;;;17.30;10.37;;;0.40;99.90;;;0.88;73.43;97761.19;5045628;28;20083;-39
2022/04/03 04:25:27;;;;;;;16.70;9.33;;;0.30;99.90;;;0.83;73.34;97758.00;5028515;28;20067;-39
2022/04/03 04:27:54;;;;;;;17.53;11.80;;;0.30;99.90;;;0.85;73.85;97761.38;5044326;28;20044;-39
2022/04/03 04:30:22;;;;;;;15.33;9.67;;;0.30;99.90;;;0.90;73.64;97755.84;5046387;28;20057;-39
2022/04/03 04:32:50;;;;;;;16.17;9.83;;;0.50;99.90;;;0.97;73.93;97762.38;5045115;28;20044;-39
2022/04/03 04:35:18;;;;;;;18.80;11.93;;;0.60;99.90;;;0.95;74.02;97756.38;5044805;28;20251;-40
2022/04/03 04:37:46;;;;;;;16.87;10.47;;;0.50;99.90;;;0.93;74.05;97759.13;5045918;28;20290;-39
2022/04/03 04:40:14;;;;;;;14.97;9.80;;;0.50;99.90;;;0.93;73.57;97766.97;5046541;28;20049;-39
2022/04/03 04:42:43;;;;;;;16.67;11.03;;;0.40;99.90;;;0.96;74.07;97772.00;5045961;28;20255;-39
2022/04/03 04:45:11;;;;;;;13.83;9.43;;;0.50;99.90;;;0.96;74.17;97764.16;5046031;28;20049;-40
2022/04/03 04:47:48;;;;;;;15.48;9.90;;;0.50;99.90;;;0.91;73.06;97775.88;5028574;28;20049;-44
2022/04/03 04:50:18;;;;;;;12.20;8.03;;;0.40;99.90;;;0.76;72.93;97778.53;5046057;28;20056;-39
2022/04/03 04:52:46;;;;;;;14.60;8.40;;;0.30;99.90;;;0.77;73.66;97781.97;5044466;28;20049;-39
2022/04/03 04:55:14;;;;;;;15.83;8.53;;;0.30;99.90;;;0.71;73.30;97785.00;5045873;28;20107;-39
2022/04/03 04:57:56;;;;;;;15.47;8.50;;;0.20;99.90;;;0.66;72.84;97792.28;5047567;28;20052;-39
2022/04/03 05:00:28;;;;;;;13.67;8.77;;;0.20;99.90;;;0.63;73.11;97792.50;5048216;28;20045;-39
2022/04/03 05:02:57;;;;;;;18.60;9.87;;;0.20;99.90;;;0.66;73.69;97792.28;5049988;28;20053;-39
2022/04/03 05:05:28;;;;;;;17.30;9.30;;;0.20;99.90;;;0.64;73.65;97791.56;5048358;28;20055;-39
2022/04/03 05:07:59;;;;;;;15.77;9.80;;;0.20;99.90;;;0.64;73.95;97791.56;5048917;28;20051;-39
2022/04/03 05:10:29;;;;;;;13.97;9.17;;;0.20;99.90;;;0.58;73.46;97782.28;5049353;28;20059;-39
2022/04/03 05:12:57;;;;;;;14.33;9.37;;;0.10;99.90;;;0.51;73.39;97786.25;5048160;28;20049;-39
2022/04/03 05:15:27;;;;;;;13.77;9.87;;;0.00;99.90;;;0.47;73.14;97790.84;5048379;28;20045;-39
2022/04/03 05:17:55;;;;;;;12.83;8.57;;;-0.10;99.90;;;0.53;73.75;97800.94;5048405;28;20045;-39
2022/04/03 05:20:24;;;;;;;15.90;9.70;;;0.10;99.90;;;0.55;73.94;97795.59;5047412;28;20068;-40
2022/04/03 05:22:51;;;;;;;17.73;9.23;;;0.10;99.90;;;0.59;74.03;97795.31;5048657;28;20052;-39
2022/04/03 05:25:19;;;;;;;14.63;9.93;;;0.20;99.90;;;0.60;73.30;97804.00;5047018;28;20060;-40
2022/04/03 05:27:47;;;;;;;13.80;8.50;;;0.20;99.90;;;0.62;73.89;97798.66;5050225;28;20079;-39
2022/04/03 05:30:16;;;;;;;11.40;8.10;;;0.20;99.90;;;0.65;73.53;97803.72;5048872;28;20469;-40
2022/04/03 05:32:44;;;;;;;12.87;9.07;;;0.30;99.90;;;0.65;73.84;97804.56;5048989;28;20049;-40
2022/04/03 05:35:13;;;;;;;16.57;9.67;;;0.20;99.90;;;0.65;73.72;97811.59;5048620;28;20049;-39
2022/04/03 05:37:44;;;;;;;12.37;9.13;;;0.20;99.90;;;0.71;73.67;97811.22;5048978;28;20066;-40
2022/04/03 05:40:13;;;;;;;14.70;8.30;;;0.30;99.90;;;0.74;73.87;97819.72;5031072;28;20140;-40
2022/04/03 05:42:41;;;;;;;14.57;8.40;;;0.30;99.90;;;0.72;73.33;97818.97;5048045;28;20057;-39
2022/04/03 05:45:09;;;;;;;12.37;7.83;;;0.30;99.90;;;0.68;72.92;97812.25;5049264;28;20048;-40
2022/04/03 05:47:38;;;;;;;13.13;8.23;;;0.20;99.90;;;0.69;73.42;97811.28;5049599;28;20058;-39
2022/04/03 05:50:11;;;;;;;11.33;6.77;;;0.20;99.90;;;0.65;73.10;97816.84;5047390;28;20051;-40
2022/04/03 05:52:51;;;;;;;12.60;7.70;;;0.20;99.90;;;0.58;72.42;97826.84;5048362;28;20057;-40
2022/04/03 05:55:21;;;;;;;11.93;7.87;;;0.20;99.90;;;0.58;73.70;97818.97;5048851;28;20052;-39
2022/04/03 05:57:53;;;;;;;11.57;7.33;;;0.10;99.90;;;0.56;72.75;97824.34;5047134;28;20120;-39
2022/04/03 06:00:23;;;;;;;10.20;6.93;;;0.10;99.90;;;0.51;72.66;97822.94;5048021;28;20057;-39
2022/04/03 06:02:59;;;;;;;11.17;6.70;;;0.00;99.90;;;0.53;73.86;97826.28;5049100;28;20037;-39
2022/04/03 06:05:35;;;;;;;14.10;7.40;;;0.10;99.90;;;0.59;73.81;97833.78;5049045;28;20059;-40
2022/04/03 06:08:05;;;;;;;11.43;7.07;;;0.20;99.90;;;0.68;73.96;97837.59;5048877;28;20071;-40
2022/04/03 06:10:34;;;;;;;11.53;7.90;;;0.30;99.90;;;0.76;73.27;97838.81;5047597;28;20057;-44
2022/04/03 06:13:08;;;;;;;13.90;7.30;;;0.40;99.90;;;0.81;72.91;97845.53;5048338;28;20057;-44
2022/04/03 06:15:43;;;;;;;11.10;7.00;;;0.40;99.90;;;0.87;73.11;97846.00;5047338;28;20057;-44
2022/04/03 06:18:14;;;;;;;14.33;8.10;;;0.50;99.90;;;0.90;73.77;97847.59;5047698;28;20094;-44
2022/04/03 06:20:43;;;;;;;13.33;7.70;;;0.50;99.90;;;0.92;72.76;97849.19;5047154;28;20059;-44
2022/04/03 06:23:19;;;;;;;10.93;7.73;;;0.50;99.90;;;1.05;72.95;97848.41;5046555;28;20045;-44
2022/04/03 06:25:52;;;;;;;13.83;8.13;;;0.70;99.90;;;1.05;72.71;97856.25;5048631;28;20057;-44
2022/04/03 06:28:21;;;;;;;12.32;8.88;;;0.70;99.90;;;1.08;73.62;97854.28;5048448;28;20059;-44
2022/04/03 06:30:50;;;;;;;11.77;7.70;;;0.70;99.90;;;0.97;72.34;97854.97;5048095;28;20055;-43
2022/04/03 06:33:18;;;;;;;11.57;8.07;;;0.50;99.90;;;0.94;72.61;97859.56;5047622;28;20044;-43
2022/04/03 06:35:46;;;;;;;12.00;7.83;;;0.50;99.90;;;0.90;72.48;97866.78;5047958;28;20055;-46
2022/04/03 06:38:16;;;;;;;10.20;6.87;;;0.40;99.90;;;0.84;72.75;97866.34;5045908;28;20051;-44
2022/04/03 06:40:54;;;;;;;14.43;8.17;;;0.30;99.90;;;0.78;72.42;97860.53;5045706;28;20057;-46
2022/04/03 06:43:25;;;;;;;17.10;10.00;;;0.30;99.90;;;0.81;72.70;97861.28;5046009;28;20059;-45
2022/04/03 06:45:55;;;;;;;10.23;7.13;;;0.30;99.90;;;0.88;72.56;97866.03;5046991;28;20045;-44
2022/04/03 06:48:24;;;;;;;10.30;6.70;;;0.40;99.90;;;0.93;72.65;97870.97;5046180;28;20048;-44
2022/04/03 06:50:52;;;;;;;10.33;6.30;;;0.50;99.90;;;0.92;72.57;97874.56;5046863;28;20071;-48
2022/04/03 06:53:19;;;;;;;12.73;8.13;;;0.50;99.90;;;0.97;72.69;97883.00;5044602;28;20057;-44
2022/04/03 06:55:48;;;;;;;8.10;5.80;;;0.50;99.90;;;0.93;71.72;97882.34;5046572;28;20068;-44
2022/04/03 06:58:16;;;;;;;10.33;5.87;;;0.50;99.90;;;0.90;71.98;97882.50;5046020;28;20394;-45
2022/04/03 07:00:48;;;;;;;8.47;5.77;;;0.50;99.90;;;0.96;72.16;97878.66;5045855;28;20457;-44
2022/04/03 07:03:16;;;;;;;8.63;5.43;;;0.50;99.90;;;1.00;72.07;97889.81;5046855;28;20049;-46
2022/04/03 07:05:44;;;;;;;8.03;5.23;;;0.60;99.90;;;0.97;71.13;97891.69;5046587;28;20267;-45
2022/04/03 07:08:13;;;;;;;7.83;5.57;;;0.60;99.90;;;0.98;72.06;97892.53;5046234;28;20059;-45
2022/04/03 07:10:43;;;;;;;9.00;6.00;;;0.50;99.90;;;1.02;71.92;97887.94;5044022;28;20366;-44
2022/04/03 07:13:11;;;;;;;8.20;5.83;;;0.60;99.90;;;1.07;71.33;97893.75;5045084;28;20056;-44
2022/04/03 07:15:39;;;;;;;10.40;5.50;;;0.60;99.90;;;1.02;71.28;97887.94;5045821;28;20067;-44
2022/04/03 07:18:07;;;;;;;10.43;6.03;;;0.60;99.90;;;1.09;71.31;97899.75;5045006;28;20488;-47
2022/04/03 07:20:35;;;;;;;12.03;5.97;;;0.60;99.90;;;1.10;71.40;97901.41;5044875;28;20056;-44
2022/04/03 07:23:03;;;;;;;23.97;13.80;;;0.70;99.90;;;1.14;71.50;97895.88;5045070;28;20053;-44
2022/04/03 07:25:32;;;;;;;22.33;12.63;;;0.80;99.90;;;1.24;71.44;97897.91;5046041;28;20053;-44
2022/04/03 07:28:00;;;;;;;10.27;7.40;;;0.90;99.90;;;1.23;70.93;97907.56;5046909;28;20079;-44
2022/04/03 07:30:28;;;;;;;16.30;10.07;;;0.80;99.90;;;1.25;71.28;97910.09;5045900;28;20323;-45
2022/04/03 07:32:56;;;;;;;19.47;11.97;;;0.80;99.90;;;1.26;71.93;97911.78;5045419;28;20053;-45
2022/04/03 07:35:25;;;;;;;25.63;16.57;;;0.90;99.90;;;1.31;71.17;97915.78;5046605;28;20071;-44
2022/04/03 07:37:53;;;;;;;14.87;9.97;;;1.00;99.90;;;1.23;70.95;97925.09;5045743;28;20049;-44
2022/04/03 07:40:21;;;;;;;8.33;5.77;;;0.80;99.90;;;1.15;70.80;97923.78;5043980;28;20065;-45
2022/04/03 07:43:08;;;;;;;19.57;14.90;;;0.80;99.90;;;1.22;71.34;97923.41;5046015;28;20059;-45
2022/04/03 07:45:36;;;;;;;13.07;8.30;;;0.90;99.90;;;1.27;70.90;97932.66;5044583;28;20059;-46
2022/04/03 07:48:05;;;;;;;10.07;7.50;;;1.00;99.90;;;1.18;69.82;97930.59;5044481;28;20053;-44
2022/04/03 07:50:33;;;;;;;9.70;6.30;;;1.00;99.90;;;1.18;71.21;97933.22;5037029;28;20049;-48
2022/04/03 07:53:01;;;;;;;8.97;6.00;;;0.80;99.90;;;1.23;70.49;97939.03;5025276;28;20277;-45
2022/04/03 07:55:29;;;;;;;10.70;5.37;;;0.90;99.90;;;1.41;71.78;97944.91;5026662;28;20053;-46
2022/04/03 07:57:57;;;;;;;10.10;6.83;;;1.20;99.90;;;1.54;71.16;97943.19;5026177;28;20053;-46
2022/04/03 08:00:25;;;;;;;9.57;5.63;;;1.40;99.90;;;1.68;71.33;97946.72;5030309;28;20056;-47
2022/04/03 08:02:53;;;;;;;9.73;6.37;;;1.50;99.90;;;1.68;71.18;97941.47;5034531;28;20076;-45
2022/04/03 08:05:21;;;;;;;17.07;11.87;;;1.50;99.90;;;1.68;71.17;97947.56;5034895;28;20377;-45
2022/04/03 08:07:49;;;;;;;9.10;7.60;;;1.50;99.90;;;1.85;71.43;97953.53;5032243;28;20271;-46
2022/04/03 08:10:20;;;;;;;8.27;4.63;;;1.70;99.90;;;1.86;70.54;97949.94;5035075;28;20049;-46
2022/04/03 08:12:49;;;;;;;6.63;5.07;;;1.60;99.90;;;1.86;70.30;97953.44;5035706;28;20045;-46
2022/04/03 08:15:19;;;;;;;8.67;4.83;;;1.60;99.90;;;1.94;70.41;97945.91;5034667;28;20056;-46
2022/04/03 08:17:47;;;;;;;12.60;6.50;;;1.70;99.90;;;2.02;70.23;97953.28;5034806;28;20058;-47
2022/04/03 08:20:18;;;;;;;8.03;5.23;;;1.90;99.90;;;2.17;71.00;97954.91;5038570;28;20625;-47
2022/04/03 08:22:48;;;;;;;9.00;5.70;;;2.10;99.90;;;2.28;70.65;97956.78;5046283;28;20047;-46
2022/04/03 08:25:17;;;;;;;9.13;6.10;;;2.20;99.90;;;2.40;70.72;97959.56;5044963;28;20052;-45
2022/04/03 08:27:52;;;;;;;6.27;4.97;;;2.30;99.90;;;2.51;70.94;97960.53;5046694;28;20052;-47
2022/04/03 08:30:23;;;;;;;7.67;4.97;;;2.50;99.90;;;2.63;70.48;97961.47;5046854;28;20049;-46
2022/04/03 08:32:52;;;;;;;8.97;5.53;;;2.60;99.90;;;2.65;69.88;97956.97;5047493;28;20051;-45
2022/04/03 08:35:22;;;;;;;10.83;5.23;;;2.50;99.90;;;2.62;69.22;97958.94;5049428;28;20060;-46
2022/04/03 08:37:50;;;;;;;9.63;5.87;;;2.40;99.90;;;2.62;69.11;97961.56;5048683;28;20044;-46
2022/04/03 08:40:21;;;;;;;8.00;5.17;;;2.40;99.90;;;2.58;68.96;97954.84;5049497;28;20057;-46
2022/04/03 08:42:51;;;;;;;8.70;6.30;;;2.40;99.90;;;2.68;69.66;97964.66;5049945;28;20056;-47
2022/04/03 08:45:20;;;;;;;6.83;5.80;;;2.50;99.90;;;2.78;69.33;97966.66;5050576;28;20063;-45
2022/04/03 08:47:55;;;;;;;7.80;5.50;;;2.70;99.90;;;2.90;69.21;97964.00;5049392;28;20175;-45
2022/04/03 08:50:32;;;;;;;10.13;4.97;;;2.90;99.90;;;2.97;67.52;97974.97;5049951;28;20067;-48
2022/04/03 08:53:04;;;;;;;9.47;5.83;;;3.10;99.90;;;3.08;69.04;97969.81;5048898;28;20053;-48
2022/04/03 08:55:33;;;;;;;9.37;4.80;;;3.20;99.90;;;3.11;67.56;97966.13;5049993;28;20271;-47
2022/04/03 08:58:02;;;;;;;9.47;5.33;;;3.20;99.90;;;2.99;67.44;97964.34;5050098;28;20051;-46
2022/04/03 09:00:34;;;;;;;7.37;4.70;;;2.90;99.90;;;3.06;67.97;97961.16;5048933;28;20053;-49
2022/04/03 09:03:02;;;;;;;7.67;4.97;;;3.00;99.90;;;3.12;67.54;97963.38;5049590;28;20059;-49
2022/04/03 09:05:41;;;;;;;7.40;5.30;;;3.10;99.90;;;3.18;68.26;97967.38;5050458;28;20045;-49
2022/04/03 09:08:10;;;;;;;7.47;5.07;;;3.20;99.90;;;3.21;67.95;97972.41;5049000;28;20048;-47
2022/04/03 09:10:41;;;;;;;34.47;13.10;;;3.10;99.90;;;3.28;68.26;97970.22;5035147;28;20057;-48
2022/04/03 09:13:10;;;;;;;19.63;11.63;;;3.20;99.90;;;3.32;67.97;97979.56;5018486;28;20045;-47
2022/04/03 09:15:38;;;;;;;11.53;7.17;;;3.30;99.90;;;3.38;68.00;97975.66;5027695;28;20053;-47
2022/04/03 09:18:08;;;;;;;8.00;5.53;;;3.30;99.90;;;3.38;67.69;97981.78;5025079;28;20053;-46
2022/04/03 09:20:37;;;;;;;7.60;6.13;;;3.20;99.90;;;3.40;67.21;97979.88;5040740;28;20057;-47
2022/04/03 09:23:08;;;;;;;6.30;4.60;;;3.30;99.90;;;3.41;67.33;97970.16;5027870;28;20049;-49
2022/04/03 09:25:41;;;;;;;6.73;4.67;;;3.40;99.00;;;3.47;67.81;97967.97;5030676;28;20049;-47
2022/04/03 09:28:14;;;;;;;7.30;4.30;;;3.40;96.80;;;3.35;64.39;97979.34;5010008;28;20360;-47
2022/04/03 09:30:46;;;;;;;5.50;3.90;;;3.20;87.30;;;3.20;64.75;97978.66;5009035;28;20068;-48
2022/04/03 09:33:20;;;;;;;7.43;4.47;;;2.90;90.30;;;3.23;65.75;97972.31;5009262;28;20062;-48
2022/04/03 09:35:57;;;;;;;6.87;5.20;;;3.00;95.10;;;3.34;67.06;97975.88;5010823;28;20062;-49
2022/04/03 09:38:30;;;;;;;7.10;4.30;;;3.20;95.10;;;3.42;67.16;97974.50;5008947;28;20046;-48
2022/04/03 09:41:00;;;;;;;8.68;4.93;;;3.30;94.60;;;3.46;66.45;97981.22;5008155;28;20053;-47
2022/04/03 09:43:38;;;;;;;6.47;4.80;;;3.30;87.90;;;3.38;65.60;97973.03;5022703;28;20045;-47
2022/04/03 09:46:11;;;;;;;10.65;5.60;;;3.10;92.00;;;3.41;66.42;97986.81;5042390;28;20048;-50
2022/04/03 09:48:42;;;;;;;7.10;4.03;;;3.20;92.50;;;3.24;64.81;97985.38;5023483;28;20052;-51
2022/04/03 09:51:19;;;;;;;5.53;4.23;;;2.90;87.60;;;3.26;65.51;97985.28;5038523;28;20057;-47
2022/04/03 09:53:53;;;;;;;6.60;4.43;;;3.00;92.40;;;3.29;65.56;97987.66;5033722;28;20045;-47
2022/04/03 09:56:33;;;;;;;6.33;4.20;;;3.20;92.30;;;3.19;63.68;97989.28;5025607;28;20064;-49
2022/04/03 09:59:07;;;;;;;7.90;4.40;;;3.00;82.60;;;3.07;64.15;97985.69;5048500;28;20048;-49
2022/04/03 10:01:41;;;;;;;6.03;3.92;;;2.70;84.40;;;2.91;62.97;97988.56;5048121;28;20056;-51
2022/04/03 10:04:14;;;;;;;6.47;4.45;;;2.50;83.80;;;2.89;64.45;97985.16;5048156;28;20057;-47
2022/04/03 10:06:43;;;;;;;8.02;4.95;;;2.50;89.60;;;3.00;65.14;97989.69;5032718;28;20052;-51
2022/04/03 10:09:11;;;;;;;7.67;5.20;;;2.70;93.20;;;3.04;64.34;97978.84;5028681;28;20079;-49
2022/04/03 10:11:43;;;;;;;6.83;4.50;;;2.80;86.60;;;3.09;60.33;97986.44;5027533;28;20388;-48
2022/04/03 10:14:14;;;;;;;8.50;4.43;;;3.00;86.50;;;3.22;64.18;97983.78;5027940;28;20067;-49
2022/04/03 10:16:42;;;;;;;7.40;4.27;;;3.20;86.80;;;3.31;64.24;97980.50;5028827;28;20070;-49
2022/04/03 10:19:10;;;;;;;7.93;4.83;;;3.40;85.20;;;3.40;64.03;97984.31;5028393;28;20233;-49
2022/04/03 10:21:48;;;;;;;10.43;7.13;;;3.40;78.30;;;3.47;63.58;97980.25;5027130;28;20045;-49
2022/04/03 10:24:25;;;;;;;8.20;5.67;;;3.50;82.50;;;3.48;62.21;97974.06;5028092;28;20053;-46
2022/04/03 10:27:04;;;;;;;12.93;6.60;;;3.50;83.10;;;3.56;64.33;97979.63;5027695;28;20042;-49
2022/04/03 10:29:37;;;;;;;14.17;10.07;;;3.50;84.10;;;3.65;63.60;97980.78;5026689;28;20061;-49
2022/04/03 10:32:06;;;;;;;12.03;9.83;;;3.70;81.30;;;3.74;64.16;97985.34;5028414;28;20080;-48
2022/04/03 10:34:54;;;;;;;7.83;6.57;;;3.80;80.00;;;3.85;63.95;97985.44;5025996;28;20055;-52